Time;durP1;ratioP1;P1;durP2;ratioP2;P2;SDS_P1;SDS_P2;PMS_P1;PMS_P2;Temp;Humidity;BMP_temperature;BMP_pressure;BME280_temperature;BME280_humidity;BME280_pressure;Samples;Min_cycle;Max_cycle;Signal;HPM_P1;HPM_P2
2021/04/12 00:01:27;;;;;;;35.78;20.40;;;;;;;6.78;39.94;100314.09;3552234;27;20419;-50
2021/04/12 00:03:13;;;;;;;50.03;22.70;;;;;;;6.75;39.64;100310.53;3554076;27;20054;-50
2021/04/12 00:05:01;;;;;;;40.13;20.35;;;;;;;6.71;40.05;100312.09;3553421;27;20471;-49
2021/04/12 00:06:47;;;;;;;40.65;21.63;;;;;;;6.66;42.92;100313.63;3554114;27;20104;-52
2021/04/12 00:08:36;;;;;;;36.72;19.92;;;;;;;6.55;42.39;100308.03;3550941;27;20055;-45
2021/04/12 00:10:23;;;;;;;44.47;22.00;;;;;;;6.44;43.18;100317.91;3554296;27;20027;-53
2021/04/12 00:12:12;;;;;;;35.38;20.05;;;;;;;6.37;46.90;100326.22;3540179;27;20081;-51
2021/04/12 00:13:57;;;;;;;37.30;20.85;;;;;;;6.27;44.33;100324.06;3548234;27;20042;-52
2021/04/12 00:15:46;;;;;;;39.25;21.10;;;;;;;6.17;45.22;100316.78;3553731;27;20130;-51
2021/04/12 00:17:33;;;;;;;44.03;23.58;;;;;;;6.09;43.36;100319.03;3551281;27;20086;-50
2021/04/12 00:19:21;;;;;;;40.10;22.15;;;;;;;6.03;43.79;100321.34;3551349;27;20057;-51
2021/04/12 00:21:08;;;;;;;45.03;22.42;;;;;;;5.97;43.41;100314.22;3539976;28;20058;-53
2021/04/12 00:22:53;;;;;;;48.97;24.45;;;;;;;5.93;44.03;100314.94;3548679;27;20050;-52
2021/04/12 00:24:39;;;;;;;46.28;23.98;;;;;;;5.90;43.70;100315.66;3553294;27;20392;-51
2021/04/12 00:26:26;;;;;;;44.20;22.88;;;;;;;5.88;43.24;100314.72;3553711;27;20054;-49
2021/04/12 00:28:14;;;;;;;45.67;22.25;;;;;;;5.87;42.55;100309.50;3552573;27;20042;-52
2021/04/12 00:30:01;;;;;;;41.47;21.85;;;;;;;5.88;43.08;100303.56;3539954;28;20050;-44
2021/04/12 00:31:49;;;;;;;48.30;23.83;;;;;;;5.88;43.62;100296.69;3548434;27;20050;-46
2021/04/12 00:33:36;;;;;;;43.42;23.27;;;;;;;5.91;43.18;100304.56;3552767;27;20137;-46
2021/04/12 00:35:22;;;;;;;47.80;23.88;;;;;;;5.93;43.43;100302.94;3554232;27;20047;-50
2021/04/12 00:37:08;;;;;;;44.53;23.63;;;;;;;5.92;42.77;100303.75;3550730;27;20411;-50
2021/04/12 00:38:56;;;;;;;42.00;22.88;;;;;;;5.93;42.68;100308.06;3553933;27;20523;-49
2021/04/12 00:40:44;;;;;;;43.97;23.38;;;;;;;5.95;42.42;100305.56;3550695;27;20042;-49
2021/04/12 00:42:48;;;;;;;47.35;24.65;;;;;;;5.96;42.57;100306.44;3540201;27;20124;-49
2021/04/12 00:44:47;;;;;;;50.40;24.45;;;;;;;5.91;45.70;100302.00;3553241;27;20495;-50
2021/04/12 00:46:54;;;;;;;49.22;23.67;;;;;;;5.85;43.86;100296.59;3550340;27;20042;-50
2021/04/12 00:49:17;;;;;;;53.50;25.95;;;;;;;5.80;43.04;100302.34;3551554;27;20043;-49
2021/04/12 00:51:16;;;;;;;61.45;25.92;;;;;;;5.77;42.53;100300.53;3539836;27;20047;-45
2021/04/12 00:53:27;;;;;;;64.95;27.85;;;;;;;5.75;43.33;100304.72;3551379;27;20038;-46
2021/04/12 00:55:27;;;;;;;58.20;25.77;;;;;;;5.72;42.92;100297.75;3550465;27;20097;-45
2021/04/12 00:57:17;;;;;;;58.40;27.23;;;;;;;5.71;43.95;100300.25;3553449;27;20373;-45
2021/04/12 00:59:05;;;;;;;53.10;27.05;;;;;;;5.70;44.32;100304.53;3552072;27;20074;-45
2021/04/12 01:00:54;;;;;;;45.90;23.70;;;;;;;5.68;47.65;100298.44;3550529;27;20050;-45
2021/04/12 01:02:43;;;;;;;53.97;26.52;;;;;;;5.66;45.48;100305.22;3553546;27;20468;-45
2021/04/12 01:04:43;;;;;;;50.35;25.77;;;;;;;5.62;44.80;100298.16;3552531;27;20077;-45
2021/04/12 01:06:34;;;;;;;53.03;25.90;;;;;;;5.58;45.14;100298.84;3550942;27;20080;-45
2021/04/12 01:09:09;;;;;;;48.55;25.58;;;;;;;5.54;44.96;100295.25;3553369;27;20510;-46
2021/04/12 01:11:39;;;;;;;56.47;27.27;;;;;;;5.50;44.42;100292.47;3552094;27;20062;-45
2021/04/12 01:14:02;;;;;;;59.08;28.70;;;;;;;5.47;44.68;100294.91;3548551;27;20090;-45
2021/04/12 01:16:14;;;;;;;54.45;26.85;;;;;;;5.40;44.69;100288.63;3550177;27;20123;-46
2021/04/12 01:18:26;;;;;;;56.25;26.98;;;;;;;5.40;45.01;100288.63;3553188;27;20566;-45
2021/04/12 01:20:43;;;;;;;54.72;27.83;;;;;;;5.37;45.46;100288.47;3553330;27;20089;-46
2021/04/12 01:23:10;;;;;;;58.92;27.83;;;;;;;5.33;45.10;100286.59;3522866;27;20078;-45
2021/04/12 01:25:24;;;;;;;59.30;26.65;;;;;;;5.28;45.79;100283.81;3504157;27;20039;-45
2021/04/12 01:27:39;;;;;;;57.63;27.70;;;;;;;5.23;45.83;100285.28;3494539;28;20277;-51
2021/04/12 01:29:56;;;;;;;60.70;28.08;;;;;;;5.16;46.10;100284.16;3539267;28;20287;-49
2021/04/12 01:32:20;;;;;;;61.75;28.15;;;;;;;5.09;45.92;100282.09;3550967;27;20472;-50
2021/04/12 01:34:37;;;;;;;59.72;28.08;;;;;;;5.03;46.49;100278.38;3550138;27;20038;-45
2021/04/12 01:36:37;;;;;;;56.38;26.17;;;;;;;4.93;47.59;100267.66;3549755;27;20038;-45
2021/04/12 01:38:32;;;;;;;61.97;28.05;;;;;;;4.83;48.30;100262.91;3550529;27;20518;-44
2021/04/12 01:40:25;;;;;;;58.63;28.02;;;;;;;4.74;49.06;100260.81;3549016;27;20058;-45
2021/04/12 01:42:20;;;;;;;62.00;30.48;;;;;;;4.68;49.41;100263.06;3551283;27;20103;-45
2021/04/12 01:44:16;;;;;;;64.72;29.05;;;;;;;4.61;48.97;100268.72;3553470;27;20059;-45
2021/04/12 01:46:06;;;;;;;62.25;27.95;;;;;;;4.57;48.84;100264.25;3549950;27;20553;-45
2021/04/12 01:48:03;;;;;;;64.20;30.90;;;;;;;4.54;49.42;100256.41;3551870;27;20114;-46
2021/04/12 01:50:04;;;;;;;73.93;30.67;;;;;;;4.51;50.01;100254.59;3552330;27;20111;-44
2021/04/12 01:52:15;;;;;;;77.43;33.22;;;;;;;4.50;49.57;100251.94;3549976;27;20067;-52
2021/04/12 01:54:15;;;;;;;84.80;33.60;;;;;;;4.46;49.71;100248.34;3509928;27;20046;-52
2021/04/12 01:56:25;;;;;;;82.10;33.88;;;;;;;4.41;50.39;100247.25;3539554;27;20055;-50
2021/04/12 01:58:25;;;;;;;80.38;32.53;;;;;;;4.36;51.77;100247.00;3549376;27;20066;-50
2021/04/12 02:00:25;;;;;;;81.90;30.83;;;;;;;4.32;52.89;100244.22;3547132;27;20039;-44
2021/04/12 02:02:24;;;;;;;90.50;35.33;;;;;;;4.27;53.24;100246.59;3538690;27;20419;-44
2021/04/12 02:04:20;;;;;;;102.63;36.17;;;;;;;4.22;53.30;100243.78;3550262;27;20089;-49
2021/04/12 02:06:26;;;;;;;97.15;35.45;;;;;;;4.18;53.79;100249.59;3550763;27;20089;-50
2021/04/12 02:08:20;;;;;;;93.43;36.70;;;;;;;4.15;54.14;100236.59;3535958;27;20149;-49
2021/04/12 02:10:18;;;;;;;89.40;35.33;;;;;;;4.11;54.08;100238.94;3549820;27;20553;-51
2021/04/12 02:12:13;;;;;;;90.05;35.08;;;;;;;4.07;53.67;100232.78;3548970;27;20091;-51
2021/04/12 02:14:17;;;;;;;86.68;35.92;;;;;;;4.03;53.18;100234.28;3545315;27;20051;-52
2021/04/12 02:16:13;;;;;;;94.63;33.65;;;;;;;4.03;52.56;100230.84;3550407;27;20050;-50
2021/04/12 02:18:17;;;;;;;79.47;32.65;;;;;;;4.02;51.98;100230.00;3550087;27;20046;-49
2021/04/12 02:20:10;;;;;;;75.18;31.15;;;;;;;4.03;51.40;100230.84;3539551;28;20047;-45
2021/04/12 02:22:22;;;;;;;66.55;31.08;;;;;;;4.07;51.57;100231.88;3541937;27;20143;-45
2021/04/12 02:24:09;;;;;;;68.53;30.02;;;;;;;4.11;51.06;100234.69;3546167;27;20464;-45
2021/04/12 02:26:09;;;;;;;59.78;28.40;;;;;;;4.19;50.68;100230.81;3552345;27;20078;-44
2021/04/12 02:28:00;;;;;;;72.78;31.27;;;;;;;4.26;50.29;100231.97;3551251;27;20054;-44
2021/04/12 02:29:54;;;;;;;66.63;29.35;;;;;;;4.31;49.89;100230.50;3550404;27;20051;-45
2021/04/12 02:31:46;;;;;;;66.88;29.40;;;;;;;4.36;49.94;100228.16;3552650;27;20429;-45
2021/04/12 02:33:35;;;;;;;65.00;29.05;;;;;;;4.40;49.47;100232.63;3550504;27;20053;-44
2021/04/12 02:35:26;;;;;;;66.45;30.08;;;;;;;4.43;49.57;100227.66;3550498;27;20526;-44
2021/04/12 02:37:26;;;;;;;69.03;30.63;;;;;;;4.44;49.41;100231.09;3566606;27;20422;-50
2021/04/12 02:39:22;;;;;;;64.60;29.75;;;;;;;4.46;49.22;100221.75;3550563;27;20049;-49
2021/04/12 02:41:41;;;;;;;70.65;30.70;;;;;;;4.47;49.67;100218.41;3550114;27;20472;-51
2021/04/12 02:43:40;;;;;;;64.20;29.90;;;;;;;4.48;49.66;100218.47;3494567;28;20068;-51
2021/04/12 02:45:30;;;;;;;68.03;32.08;;;;;;;4.48;49.52;100222.75;3517546;27;20042;-50
2021/04/12 02:47:29;;;;;;;69.07;31.25;;;;;;;4.44;49.81;100221.69;3549400;27;20038;-49
2021/04/12 02:49:19;;;;;;;76.43;34.85;;;;;;;4.43;49.45;100213.94;3538333;28;20047;-49
2021/04/12 02:51:13;;;;;;;70.07;32.47;;;;;;;4.39;49.52;100213.78;3547933;27;20137;-49
2021/04/12 02:53:05;;;;;;;71.95;33.00;;;;;;;4.36;49.33;100215.31;3550546;27;20043;-52
2021/04/12 02:55:25;;;;;;;73.45;31.75;;;;;;;4.32;49.84;100213.41;3551212;27;20082;-50
2021/04/12 02:57:24;;;;;;;75.07;33.50;;;;;;;4.29;50.75;100214.16;3550092;27;20507;-49
2021/04/12 02:59:40;;;;;;;67.75;30.80;;;;;;;4.24;51.44;100207.91;3549209;27;20050;-49
2021/04/12 03:01:37;;;;;;;72.38;32.17;;;;;;;4.19;52.47;100207.72;3537728;27;20051;-52
2021/04/12 03:03:48;;;;;;;68.85;31.70;;;;;;;4.14;52.91;100205.69;3550431;27;20050;-50
2021/04/12 03:05:55;;;;;;;74.78;32.05;;;;;;;4.09;52.97;100208.06;3548865;27;20051;-49
2021/04/12 03:07:51;;;;;;;83.43;31.13;;;;;;;4.05;53.00;100203.56;3550297;27;20529;-50
2021/04/12 03:10:00;;;;;;;84.88;34.05;;;;;;;4.02;52.25;100201.75;3551391;27;20042;-50
2021/04/12 03:12:02;;;;;;;84.68;34.20;;;;;;;3.98;52.54;100197.28;3548830;27;20038;-49
2021/04/12 03:14:03;;;;;;;76.65;33.38;;;;;;;3.95;53.00;100193.69;3550083;27;20049;-52
2021/04/12 03:16:20;;;;;;;89.43;34.78;;;;;;;3.91;54.41;100191.75;3538036;28;20055;-48
2021/04/12 03:18:43;;;;;;;82.70;34.45;;;;;;;3.87;53.73;100192.44;3549608;27;20046;-49
2021/04/12 03:20:46;;;;;;;80.65;33.33;;;;;;;3.84;54.40;100195.69;3493044;28;20051;-51
2021/04/12 03:22:49;;;;;;;79.88;35.92;;;;;;;3.83;54.45;100192.28;3492426;28;20067;-49
2021/04/12 03:24:39;;;;;;;81.57;35.97;;;;;;;3.83;54.29;100189.69;3508795;28;20126;-49
2021/04/12 03:26:36;;;;;;;84.63;36.10;;;;;;;3.86;53.74;100191.56;3544437;27;20047;-50
2021/04/12 03:28:27;;;;;;;77.78;34.70;;;;;;;3.88;54.92;100189.94;3553851;27;20511;-45
2021/04/12 03:30:28;;;;;;;79.00;35.22;;;;;;;3.88;53.69;100189.03;3553055;27;20139;-44
2021/04/12 03:32:55;;;;;;;81.32;36.03;;;;;;;3.88;53.13;100189.03;3553337;27;20506;-45
2021/04/12 03:34:40;;;;;;;91.03;37.35;;;;;;;3.90;53.57;100190.88;3504711;27;20044;-45
2021/04/12 03:36:31;;;;;;;81.38;35.88;;;;;;;3.92;53.17;100186.69;3554523;27;20042;-44
2021/04/12 03:38:31;;;;;;;84.22;37.13;;;;;;;3.93;53.18;100190.13;3551428;27;20074;-44
2021/04/12 03:40:24;;;;;;;83.90;36.15;;;;;;;3.94;53.23;100187.66;3552673;27;20051;-44
2021/04/12 03:42:17;;;;;;;78.55;35.40;;;;;;;3.97;53.23;100190.38;3553509;27;20530;-44
2021/04/12 03:44:19;;;;;;;80.65;37.83;;;;;;;3.99;53.12;100193.03;3551163;27;20104;-45
2021/04/12 03:46:27;;;;;;;79.68;34.95;;;;;;;4.02;53.17;100188.91;3554263;27;20125;-44
2021/04/12 03:48:56;;;;;;;94.55;36.60;;;;;;;4.04;54.23;100192.44;3554911;27;20055;-45
2021/04/12 03:51:13;;;;;;;74.95;34.20;;;;;;;4.06;54.28;100192.50;3493427;27;20052;-46
2021/04/12 03:53:35;;;;;;;75.70;33.00;;;;;;;4.08;54.16;100188.31;3514780;27;20054;-44
2021/04/12 03:55:37;;;;;;;74.43;32.92;;;;;;;4.12;53.34;100184.22;3551035;27;20075;-45
2021/04/12 03:57:50;;;;;;;76.95;32.78;;;;;;;4.14;53.73;100185.16;3540239;27;20051;-46
2021/04/12 03:59:43;;;;;;;81.38;34.47;;;;;;;4.18;53.82;100184.53;3551162;27;20768;-44
2021/04/12 04:01:46;;;;;;;73.43;31.33;;;;;;;4.23;52.95;100177.91;3551393;27;20038;-44
2021/04/12 04:03:46;;;;;;;69.10;32.97;;;;;;;4.27;52.80;100176.38;3540031;28;20058;-44
2021/04/12 04:05:53;;;;;;;70.28;32.03;;;;;;;4.34;53.34;100175.84;3551028;27;20527;-44
2021/04/12 04:08:04;;;;;;;74.95;32.40;;;;;;;4.42;53.45;100184.78;3551292;27;20136;-51
2021/04/12 04:09:58;;;;;;;72.63;31.02;;;;;;;4.49;52.93;100185.94;3554306;27;20419;-55
2021/04/12 04:11:58;;;;;;;77.93;33.17;;;;;;;4.55;52.97;100179.41;3554876;27;20046;-49
2021/04/12 04:13:58;;;;;;;68.18;31.90;;;;;;;4.61;53.33;100176.22;3549265;27;20047;-49
2021/04/12 04:16:04;;;;;;;73.63;32.53;;;;;;;4.69;54.13;100180.03;3553649;27;20047;-50
2021/04/12 04:18:16;;;;;;;74.18;32.45;;;;;;;4.75;54.33;100180.31;3555103;27;20130;-49
2021/04/12 04:20:16;;;;;;;68.22;32.03;;;;;;;4.82;54.60;100178.03;3550835;27;20050;-49
2021/04/12 04:22:18;;;;;;;68.20;32.33;;;;;;;4.89;54.33;100180.06;3551755;27;20050;-45
2021/04/12 04:24:12;;;;;;;66.72;31.27;;;;;;;4.95;54.42;100185.44;3539868;28;20051;-44
2021/04/12 04:26:42;;;;;;;70.85;30.33;;;;;;;5.04;54.59;100183.31;3551278;27;20046;-44
2021/04/12 04:28:53;;;;;;;66.18;29.45;;;;;;;5.13;54.26;100182.81;3514770;27;20043;-44
2021/04/12 04:30:57;;;;;;;63.78;30.52;;;;;;;5.21;54.29;100184.03;3553008;27;20046;-45
2021/04/12 04:32:55;;;;;;;66.53;29.63;;;;;;;5.30;53.22;100179.28;3553237;27;20501;-45
2021/04/12 04:34:51;;;;;;;72.80;29.70;;;;;;;5.39;54.27;100181.38;3552464;27;20578;-44
2021/04/12 04:36:41;;;;;;;63.70;31.10;;;;;;;5.48;53.32;100180.88;3552677;27;20698;-44
2021/04/12 04:38:54;;;;;;;74.57;32.47;;;;;;;5.59;53.79;100177.09;3552312;27;20050;-44
2021/04/12 04:40:49;;;;;;;65.97;29.75;;;;;;;5.68;53.07;100172.31;3549758;27;20518;-44
2021/04/12 04:42:53;;;;;;;68.30;29.58;;;;;;;5.78;54.10;100173.53;3552148;27;20107;-44
2021/04/12 04:45:09;;;;;;;63.17;29.38;;;;;;;5.90;53.65;100175.75;3552345;27;20065;-44
2021/04/12 04:47:17;;;;;;;66.07;31.33;;;;;;;6.04;54.65;100178.88;3506264;27;20411;-44
2021/04/12 04:49:23;;;;;;;76.82;29.92;;;;;;;6.20;55.06;100175.22;3550641;27;20043;-45
2021/04/12 04:51:35;;;;;;;76.03;32.08;;;;;;;6.36;54.26;100168.97;3539729;27;20051;-44
2021/04/12 04:53:44;;;;;;;81.60;31.52;;;;;;;6.55;54.87;100170.56;3495255;28;20461;-45
2021/04/12 04:55:46;;;;;;;73.25;34.22;;;;;;;6.71;55.23;100170.31;3548368;27;20499;-45
2021/04/12 04:57:40;;;;;;;79.85;32.92;;;;;;;6.87;55.21;100171.75;3551618;27;20043;-45
2021/04/12 04:59:35;;;;;;;82.72;34.03;;;;;;;7.05;56.07;100168.97;3553155;27;20081;-45
2021/04/12 05:01:38;;;;;;;69.03;32.88;;;;;;;7.23;55.58;100163.63;3550130;27;20083;-48
2021/04/12 05:03:51;;;;;;;59.35;28.50;;;;;;;7.40;55.27;100161.59;3551530;27;20057;-45
2021/04/12 05:05:47;;;;;;;63.35;31.17;;;;;;;7.61;54.94;100162.31;3539494;28;20055;-45
2021/04/12 05:07:49;;;;;;;66.05;29.98;;;;;;;7.79;54.62;100156.91;3548834;27;20047;-45
2021/04/12 05:09:42;;;;;;;65.28;29.70;;;;;;;7.95;53.99;100157.38;3551386;27;20085;-45
2021/04/12 05:11:42;;;;;;;58.63;28.73;;;;;;;8.11;53.69;100151.91;3567680;27;20042;-46
2021/04/12 05:13:41;;;;;;;58.42;29.10;;;;;;;8.27;53.45;100157.50;3550291;27;20085;-45
2021/04/12 05:15:54;;;;;;;57.53;29.08;;;;;;;8.42;52.64;100149.38;3550793;27;20104;-46
2021/04/12 05:18:02;;;;;;;54.10;29.40;;;;;;;8.57;52.87;100145.53;3539394;27;20043;-45
2021/04/12 05:20:00;;;;;;;59.33;29.75;;;;;;;8.70;51.72;100139.00;3551307;27;20050;-45
2021/04/12 05:22:05;;;;;;;56.85;29.85;;;;;;;8.83;51.14;100137.63;3550549;27;20089;-53
2021/04/12 05:24:16;;;;;;;60.40;30.00;;;;;;;8.96;51.09;100147.50;3539454;27;20054;-50
2021/04/12 05:26:22;;;;;;;53.13;28.40;;;;;;;9.08;50.18;100136.63;3551731;27;20042;-50
2021/04/12 05:28:17;;;;;;;46.95;27.17;;;;;;;9.20;50.19;100132.59;3550472;27;20047;-50
2021/04/12 05:30:28;;;;;;;60.03;28.80;;;;;;;9.30;49.81;100130.28;3552032;27;20043;-50
2021/04/12 05:32:23;;;;;;;51.30;27.02;;;;;;;9.41;49.63;100127.97;3549288;27;20053;-50
2021/04/12 05:34:49;;;;;;;55.20;28.90;;;;;;;9.54;49.08;100124.00;3550006;27;20053;-53
2021/04/12 05:36:43;;;;;;;;;;;;;;;9.64;48.76;100120.81;3511787;27;20047;-50
2021/04/12 05:39:01;;;;;;;61.47;27.83;;;;;;;9.75;48.26;100115.00;3553491;27;19966;-49
2021/04/12 05:41:00;;;;;;;53.85;28.65;;;;;;;9.85;48.37;100119.59;3553230;27;20057;-53
2021/04/12 05:42:58;;;;;;;51.47;28.50;;;;;;;9.95;48.13;100111.19;3549869;27;20511;-51
2021/04/12 05:44:58;;;;;;;57.40;29.70;;;;;;;10.03;47.69;100114.81;3553066;27;20066;-49
2021/04/12 05:46:57;;;;;;;49.17;27.95;;;;;;;10.12;47.21;100106.38;3549881;27;20057;-53
2021/04/12 05:49:05;;;;;;;50.10;27.35;;;;;;;10.20;46.53;100110.03;3549672;27;20047;-49
2021/04/12 05:51:15;;;;;;;47.50;25.92;;;;;;;10.30;46.33;100114.59;3543047;27;20526;-52
2021/04/12 05:53:06;;;;;;;54.13;27.90;;;;;;;10.41;46.42;100120.00;3552993;27;20046;-53
2021/04/12 05:55:09;;;;;;;48.47;27.83;;;;;;;10.54;46.30;100125.44;3551575;27;20078;-50
2021/04/12 05:57:17;;;;;;;57.28;28.67;;;;;;;10.67;46.36;100130.94;3551004;27;20672;-46
2021/04/12 05:59:19;;;;;;;52.33;25.58;;;;;;;10.81;44.84;100126.03;3530133;28;20100;-52
2021/04/12 06:01:19;;;;;;;46.97;25.25;;;;;;;10.94;43.97;100121.06;3549667;27;20051;-52
2021/04/12 06:03:19;;;;;;;45.83;25.42;;;;;;;11.10;43.34;100122.25;3551189;27;20047;-53
2021/04/12 06:05:07;;;;;;;47.85;23.50;;;;;;;11.26;42.16;100124.25;3538769;28;20573;-52
2021/04/12 06:07:23;;;;;;;45.38;24.13;;;;;;;11.41;42.20;100115.88;3548126;27;20050;-50
2021/04/12 06:09:37;;;;;;;41.97;22.75;;;;;;;11.56;40.63;100110.09;3543105;27;20082;-49
2021/04/12 06:11:47;;;;;;;39.97;21.95;;;;;;;11.69;39.89;100114.63;3504012;27;20285;-53
2021/04/12 06:13:59;;;;;;;39.30;22.20;;;;;;;11.81;40.56;100116.56;3549215;27;20081;-51
2021/04/12 06:16:16;;;;;;;44.20;23.33;;;;;;;11.92;40.38;100114.13;3549564;27;20042;-50
2021/04/12 06:18:30;;;;;;;42.97;23.08;;;;;;;11.96;40.63;100111.59;3487129;27;20081;-49
2021/04/12 06:20:38;;;;;;;40.97;23.40;;;;;;;11.98;40.75;100114.22;3538908;27;20062;-50
2021/04/12 06:22:41;;;;;;;38.03;21.98;;;;;;;12.01;40.35;100106.44;3551006;27;20050;-49
2021/04/12 06:24:43;;;;;;;43.10;23.48;;;;;;;12.06;40.41;100102.19;3550608;27;20092;-50
2021/04/12 06:26:58;;;;;;;46.72;21.90;;;;;;;12.13;40.85;100108.38;3550697;27;20140;-49
2021/04/12 06:28:53;;;;;;;50.80;30.10;;;;;;;12.27;39.96;100104.22;3538487;28;20496;-54
2021/04/12 06:30:49;;;;;;;45.13;28.90;;;;;;;12.43;39.44;100107.06;3550922;27;20531;-51
2021/04/12 06:33:00;;;;;;;41.30;22.33;;;;;;;12.65;38.55;100103.88;3549246;27;20075;-49
2021/04/12 06:35:06;;;;;;;56.65;28.25;;;;;;;12.86;38.06;100105.84;3538545;28;20447;-52
2021/04/12 06:36:57;;;;;;;44.47;24.80;;;;;;;13.06;37.79;100103.50;3550996;27;20099;-46
2021/04/12 06:39:08;;;;;;;45.00;26.73;;;;;;;13.31;36.33;100107.22;3549397;27;20043;-47
2021/04/12 06:41:14;;;;;;;54.60;33.00;;;;;;;13.51;35.76;100106.50;3550250;27;20455;-45
2021/04/12 06:43:39;;;;;;;47.83;26.77;;;;;;;13.73;35.42;100107.59;3551652;27;20444;-46
2021/04/12 06:45:50;;;;;;;43.08;23.05;;;;;;;13.88;34.93;100101.59;3549558;27;20531;-46
2021/04/12 06:48:12;;;;;;;41.53;24.90;;;;;;;13.99;34.89;100099.94;3549215;27;20411;-50
2021/04/12 06:50:24;;;;;;;46.92;22.67;;;;;;;14.18;34.67;100090.50;3549663;27;20615;-52
2021/04/12 06:52:52;;;;;;;40.60;20.27;;;;;;;14.33;34.86;100086.28;3538298;27;20051;-50
2021/04/12 06:54:43;;;;;;;41.70;19.95;;;;;;;14.49;34.50;100087.22;3550596;27;20076;-49
2021/04/12 06:57:17;;;;;;;43.88;21.42;;;;;;;14.60;34.05;100083.75;3551351;27;20042;-52
2021/04/12 06:59:31;;;;;;;32.40;17.38;;;;;;;14.63;34.04;100078.56;3549319;27;20096;-49
2021/04/12 07:01:57;;;;;;;39.80;20.65;;;;;;;14.67;34.08;100071.59;3538197;27;20558;-50
2021/04/12 07:04:12;;;;;;;33.88;18.15;;;;;;;14.76;34.60;100071.63;3551273;27;20196;-51
2021/04/12 07:06:24;;;;;;;28.30;17.30;;;;;;;14.87;33.74;100069.06;3503822;27;20076;-50
2021/04/12 07:08:28;;;;;;;31.90;18.25;;;;;;;14.89;33.49;100072.56;3549618;27;20107;-50
2021/04/12 07:10:27;;;;;;;41.30;20.73;;;;;;;14.93;33.24;100063.84;3538458;28;20059;-50
2021/04/12 07:12:53;;;;;;;34.75;19.30;;;;;;;15.02;33.93;100069.09;3549760;27;20047;-45
2021/04/12 07:15:05;;;;;;;33.65;17.92;;;;;;;15.10;34.87;100061.28;3545746;27;20054;-46
2021/04/12 07:17:08;;;;;;;29.60;17.10;;;;;;;15.25;34.25;100062.16;3550957;27;20074;-49
2021/04/12 07:19:41;;;;;;;31.52;16.60;;;;;;;15.37;33.16;100063.03;3538280;28;20080;-48
2021/04/12 07:21:53;;;;;;;29.00;16.98;;;;;;;15.45;32.98;100057.78;3552827;27;20115;-47
2021/04/12 07:24:04;;;;;;;30.45;17.00;;;;;;;15.54;33.09;100054.31;3550983;27;20087;-47
2021/04/12 07:26:25;;;;;;;27.42;15.35;;;;;;;15.59;32.76;100056.09;3550011;27;20043;-46
2021/04/12 07:28:30;;;;;;;26.65;15.15;;;;;;;15.61;32.41;100058.69;3480271;28;20407;-51
2021/04/12 07:30:47;;;;;;;23.42;14.10;;;;;;;15.68;32.50;100063.09;3523472;27;20116;-51
2021/04/12 07:32:58;;;;;;;32.55;17.90;;;;;;;15.75;32.14;100046.50;3549079;27;20142;-46
2021/04/12 07:35:19;;;;;;;27.95;15.75;;;;;;;15.84;31.48;100050.84;3549092;27;20099;-47
2021/04/12 07:37:39;;;;;;;23.38;15.10;;;;;;;15.96;31.64;100047.31;3537695;27;20047;-46
2021/04/12 07:39:58;;;;;;;28.10;15.02;;;;;;;16.03;31.60;100049.03;3509651;27;20521;-46
2021/04/12 07:42:10;;;;;;;27.40;15.95;;;;;;;16.11;31.07;100042.06;3547867;27;20088;-46
2021/04/12 07:44:25;;;;;;;21.88;13.48;;;;;;;16.23;30.67;100040.25;3548734;27;20095;-45
2021/04/12 07:46:33;;;;;;;24.50;14.80;;;;;;;16.28;30.60;100044.63;3547780;27;20486;-46
2021/04/12 07:49:01;;;;;;;21.05;12.85;;;;;;;16.38;30.18;100045.44;3551636;27;20504;-48
2021/04/12 07:51:29;;;;;;;27.25;13.88;;;;;;;16.50;30.02;100037.53;3549346;27;20049;-48
2021/04/12 07:54:11;;;;;;;25.05;14.55;;;;;;;16.56;29.97;100039.25;3551063;27;20042;-48
2021/04/12 07:56:21;;;;;;;25.17;14.90;;;;;;;16.67;29.81;100034.84;3547250;27;20050;-53
2021/04/12 07:58:45;;;;;;;29.10;15.63;;;;;;;16.79;29.84;100033.06;3550955;27;20047;-53
2021/04/12 08:00:57;;;;;;;19.67;12.50;;;;;;;16.79;28.89;100022.59;3503180;28;20100;-53
2021/04/12 08:02:56;;;;;;;26.83;14.55;;;;;;;16.80;27.65;100030.44;3549760;27;20046;-50
2021/04/12 08:05:21;;;;;;;29.23;15.48;;;;;;;16.87;28.76;100020.78;3549782;27;20049;-51
2021/04/12 08:07:44;;;;;;;25.42;14.90;;;;;;;17.01;29.74;100015.47;3549948;27;20059;-50
2021/04/12 08:09:46;;;;;;;25.17;15.13;;;;;;;17.19;29.49;100014.44;3538815;27;20107;-52
2021/04/12 08:12:14;;;;;;;29.67;16.35;;;;;;;17.32;27.35;100009.97;3551940;27;20057;-49
2021/04/12 08:14:37;;;;;;;27.20;13.18;;;;;;;17.37;27.59;100013.44;3549608;27;20095;-46
2021/04/12 08:17:07;;;;;;;26.92;14.02;;;;;;;17.46;27.06;100010.72;3552993;27;20042;-47
2021/04/12 08:19:16;;;;;;;21.85;13.40;;;;;;;17.48;27.42;100009.84;3540804;27;20047;-47
2021/04/12 08:21:23;;;;;;;31.55;15.35;;;;;;;17.43;26.93;99998.50;3553357;27;20142;-48
2021/04/12 08:24:00;;;;;;;32.28;14.95;;;;;;;17.44;26.51;100007.25;3553237;27;20057;-50
2021/04/12 08:26:26;;;;;;;32.47;16.17;;;;;;;17.40;27.54;100000.28;3551154;27;20043;-48
2021/04/12 08:28:43;;;;;;;25.25;14.48;;;;;;;17.38;27.12;100007.31;3552103;27;20109;-46
2021/04/12 08:31:24;;;;;;;26.92;16.10;;;;;;;17.24;27.76;100010.03;3553498;27;20065;-46
2021/04/12 08:33:51;;;;;;;29.27;14.65;;;;;;;17.05;27.84;100004.06;3482367;28;20064;-46
2021/04/12 08:36:12;;;;;;;30.50;14.52;;;;;;;16.88;28.30;100005.06;3496161;28;20049;-46
2021/04/12 08:38:40;;;;;;;35.47;15.20;;;;;;;16.78;28.97;100005.13;3515348;27;20043;-46
2021/04/12 08:40:54;;;;;;;39.50;16.75;;;;;;;16.69;29.35;99998.16;3550448;27;20044;-46
2021/04/12 08:42:55;;;;;;;30.38;16.05;;;;;;;16.63;29.32;99993.81;3551984;27;20054;-46
2021/04/12 08:45:19;;;;;;;26.77;15.40;;;;;;;16.48;29.73;99992.16;3550458;27;20058;-46
2021/04/12 08:47:27;;;;;;;25.67;14.60;;;;;;;16.16;30.06;99994.94;3531217;27;20128;-46
2021/04/12 08:49:22;;;;;;;26.70;15.60;;;;;;;15.95;30.36;99985.41;3550688;27;20084;-46
2021/04/12 08:51:24;;;;;;;;;;;;;;;15.77;31.10;99979.34;3554406;27;20558;-46
2021/04/12 08:53:30;;;;;;;29.77;15.30;;;;;;;15.53;31.40;99971.53;3525382;27;20303;-45
2021/04/12 08:55:32;;;;;;;28.77;15.57;;;;;;;15.39;31.94;99968.94;3550253;27;20077;-48
2021/04/12 08:57:50;;;;;;;24.90;15.27;;;;;;;15.32;31.98;99973.28;3553440;27;20434;-46
2021/04/12 09:00:21;;;;;;;33.30;16.23;;;;;;;15.28;32.76;99976.78;3566386;27;20042;-48
2021/04/12 09:02:24;;;;;;;26.15;15.48;;;;;;;15.24;32.10;99972.41;3553791;27;20061;-52
2021/04/12 09:04:47;;;;;;;29.83;17.48;;;;;;;15.21;32.24;99970.69;3550605;27;20043;-50
2021/04/12 09:07:17;;;;;;;31.70;16.52;;;;;;;15.18;32.96;99972.44;3551085;27;20081;-49
2021/04/12 09:09:21;;;;;;;29.75;17.30;;;;;;;15.09;33.41;99968.06;3539767;28;20078;-49
2021/04/12 09:11:39;;;;;;;24.98;16.23;;;;;;;15.04;33.65;99969.81;3551722;27;20501;-50
2021/04/12 09:13:54;;;;;;;33.22;16.38;;;;;;;14.98;33.57;99960.22;3550819;27;20525;-50
2021/04/12 09:16:01;;;;;;;31.90;17.73;;;;;;;14.91;33.88;99963.72;3550470;27;20073;-48
2021/04/12 09:18:21;;;;;;;28.63;16.27;;;;;;;14.87;34.30;99961.97;3526281;28;20477;-50
2021/04/12 09:20:40;;;;;;;30.25;17.60;;;;;;;14.79;34.32;99954.13;3467018;28;20084;-49
2021/04/12 09:22:59;;;;;;;32.53;17.25;;;;;;;14.73;34.91;99953.22;3546774;27;20069;-49
2021/04/12 09:24:48;;;;;;;30.55;17.23;;;;;;;14.65;35.32;99945.41;3549985;27;20047;-48
2021/04/12 09:26:48;;;;;;;30.92;16.00;;;;;;;14.59;35.12;99941.03;3553548;27;20126;-47
2021/04/12 09:29:06;;;;;;;29.73;15.90;;;;;;;14.55;35.30;99941.03;3549281;27;20051;-45
2021/04/12 09:31:14;;;;;;;27.83;15.38;;;;;;;14.46;35.06;99927.09;3549904;27;20050;-47
2021/04/12 09:33:20;;;;;;;26.70;14.20;;;;;;;14.40;34.55;99924.47;3552480;27;20050;-47
2021/04/12 09:35:38;;;;;;;32.00;15.38;;;;;;;14.35;35.39;99927.94;3551924;27;20058;-45